createdAt,value
2018-06-03T00:04:54.340Z,101441.70
2018-06-03T00:09:55.338Z,101439.51
2018-06-03T00:14:56.335Z,101445.84
2018-06-03T00:19:57.303Z,101441.08
2018-06-03T00:24:58.273Z,101448.43
2018-06-03T00:29:59.247Z,101446.42
2018-06-03T00:35:00.254Z,101450.05
2018-06-03T00:40:01.216Z,101457.43
2018-06-03T00:45:02.184Z,101456.63
2018-06-03T00:50:03.167Z,101445.41
2018-06-03T00:55:04.173Z,101443.20
2018-06-03T01:00:05.172Z,101445.88
2018-06-03T01:05:06.128Z,101442.44
2018-06-03T01:10:07.094Z,101440.30
2018-06-03T01:15:08.075Z,101438.98
2018-06-03T01:20:09.042Z,101436.02
2018-06-03T01:25:10.028Z,101432.18
2018-06-03T01:30:11.028Z,101441.65
2018-06-03T01:35:12.063Z,101431.73
2018-06-03T01:40:13.067Z,101434.27
2018-06-03T01:45:14.044Z,101431.20
2018-06-03T01:50:15.021Z,101421.61
2018-06-03T01:55:16.025Z,101417.84
2018-06-03T02:00:17.032Z,101418.78
2018-06-03T02:05:17.982Z,101411.16
2018-06-03T02:10:18.956Z,101402.17
2018-06-03T02:15:19.953Z,101412.88
2018-06-03T02:20:20.919Z,101416.35
2018-06-03T02:25:21.902Z,101416.34
2018-06-03T02:30:22.897Z,101418.44
2018-06-03T02:35:23.910Z,101422.61
2018-06-03T02:40:24.923Z,101422.66
2018-06-03T02:45:25.917Z,101424.42
2018-06-03T02:50:26.960Z,101421.06
2018-06-03T02:55:27.933Z,101422.20
2018-06-03T03:00:28.959Z,101425.26
2018-06-03T03:05:29.921Z,101428.30
2018-06-03T03:10:30.900Z,101443.31
2018-06-03T03:15:31.902Z,101451.86
2018-06-03T03:20:32.894Z,101443.68
2018-06-03T03:25:33.854Z,101444.50
2018-06-03T03:30:34.834Z,101436.84
2018-06-03T03:35:35.846Z,101441.44
2018-06-03T03:40:36.834Z,101441.83
2018-06-03T03:45:37.795Z,101441.34
2018-06-03T03:50:38.781Z,101437.74
2018-06-03T03:55:39.771Z,101444.23
2018-06-03T04:00:40.750Z,101439.09
2018-06-03T04:05:41.733Z,101442.78
2018-06-03T04:10:42.698Z,101434.00
2018-06-03T04:15:43.683Z,101443.94
2018-06-03T04:20:44.639Z,101443.89
2018-06-03T04:25:45.622Z,101447.80
2018-06-03T04:30:46.589Z,101449.63
2018-06-03T04:35:47.610Z,101453.94
2018-06-03T04:40:48.592Z,101446.21
2018-06-03T04:45:49.579Z,101452.70
2018-06-03T04:50:50.540Z,101456.91
2018-06-03T04:55:51.489Z,101458.84
2018-06-03T05:00:52.463Z,101463.58
2018-06-03T05:05:53.473Z,101465.46
2018-06-03T05:10:54.435Z,101462.55
2018-06-03T05:15:55.399Z,101465.19
2018-06-03T05:20:56.361Z,101464.77
2018-06-03T05:25:57.357Z,101464.08
2018-06-03T05:30:58.356Z,101457.13
2018-06-03T05:35:59.371Z,101453.46
2018-06-03T05:41:00.348Z,101458.61
2018-06-03T05:46:01.336Z,101460.77
2018-06-03T05:51:02.315Z,101463.42
2018-06-03T05:56:03.517Z,101464.27
2018-06-03T06:01:04.495Z,101463.83
2018-06-03T06:06:05.489Z,101455.31
2018-06-03T06:11:06.474Z,101460.50
2018-06-03T06:16:07.445Z,101465.66
2018-06-03T06:21:08.417Z,101461.27
2018-06-03T06:26:09.400Z,101467.64
2018-06-03T06:31:10.371Z,101465.19
2018-06-03T06:36:11.407Z,101471.09
2018-06-03T06:41:12.588Z,101480.21
2018-06-03T06:46:13.568Z,101482.21
2018-06-03T06:51:14.574Z,101479.56
2018-06-03T06:56:15.554Z,101479.89
2018-06-03T07:01:16.571Z,101484.27
2018-06-03T07:06:17.568Z,101477.84
2018-06-03T07:11:18.556Z,101490.69
2018-06-03T07:16:19.564Z,101494.63
2018-06-03T07:21:20.532Z,101498.48
2018-06-03T07:26:21.540Z,101501.44
2018-06-03T07:31:22.516Z,101502.73
2018-06-03T07:36:23.583Z,101502.47
2018-06-03T07:41:24.567Z,101505.48
2018-06-03T07:46:25.582Z,101503.88
2018-06-03T07:51:26.580Z,101506.52
2018-06-03T07:56:27.617Z,101506.07
2018-06-03T08:01:28.615Z,101505.62
2018-06-03T08:06:29.615Z,101506.36
2018-06-03T08:11:30.579Z,101502.60
2018-06-03T08:16:31.562Z,101508.20
2018-06-03T08:21:32.561Z,101514.16
2018-06-03T08:26:33.527Z,101514.47
2018-06-03T08:31:34.531Z,101522.80
2018-06-03T08:36:35.546Z,101524.09
2018-06-03T08:41:36.555Z,101528.20
2018-06-03T08:46:37.519Z,101534.94
2018-06-03T08:51:38.547Z,101543.06
2018-06-03T08:56:39.549Z,101547.80
2018-06-03T09:01:40.556Z,101550.12
2018-06-03T09:06:41.528Z,101549.36
2018-06-03T09:11:42.542Z,101551.06
2018-06-03T09:16:43.567Z,101565.44
2018-06-03T09:21:44.539Z,101563.02
2018-06-03T09:26:45.532Z,101566.50
2018-06-03T09:31:46.584Z,101562.24
2018-06-03T09:36:47.686Z,101568.30
2018-06-03T09:41:48.716Z,101564.55
2018-06-03T09:46:49.710Z,101560.89
2018-06-03T09:51:50.725Z,101556.22
2018-06-03T09:56:51.697Z,101556.66
2018-06-03T10:01:52.718Z,101559.27
2018-06-03T10:06:53.697Z,101559.23
2018-06-03T10:11:54.705Z,101571.67
2018-06-03T10:16:55.705Z,101567.34
2018-06-03T10:21:56.675Z,101569.23
2018-06-03T10:26:57.721Z,101571.80
2018-06-03T10:31:58.721Z,101571.77
2018-06-03T10:36:59.769Z,101575.93
2018-06-03T10:42:00.761Z,101574.19
2018-06-03T10:47:01.730Z,101572.87
2018-06-03T10:52:02.705Z,101579.16
2018-06-03T11:02:11.341Z,101579.09
2018-06-03T11:07:12.328Z,101580.46
2018-06-03T11:12:13.469Z,101573.32
2018-06-03T11:17:14.479Z,101567.78
2018-06-03T11:22:15.500Z,101564.62
2018-06-03T11:27:16.490Z,101562.90
2018-06-03T11:32:17.499Z,101560.70
2018-06-03T11:37:18.517Z,101563.35
2018-06-03T11:42:19.537Z,101553.56
2018-06-03T11:47:20.552Z,101557.44
2018-06-03T11:52:21.555Z,101560.97
2018-06-03T11:57:22.583Z,101559.68
2018-06-03T12:02:23.589Z,101561.72
2018-06-03T12:07:24.577Z,101564.69
2018-06-03T12:12:25.584Z,101564.77
2018-06-03T12:17:26.569Z,101565.63
2018-06-03T12:22:27.575Z,101566.55
2018-06-03T12:27:28.581Z,101566.41
2018-06-03T12:32:29.583Z,101565.36
2018-06-03T12:37:30.623Z,101564.52
2018-06-03T12:42:31.633Z,101563.31
2018-06-03T12:47:32.644Z,101564.64
2018-06-03T12:52:33.640Z,101560.25
2018-06-03T12:57:34.647Z,101556.66
2018-06-03T13:03:18.967Z,101551.48
2018-06-03T13:08:21.153Z,101541.70
2018-06-03T13:13:23.398Z,101550.36
2018-06-03T13:18:25.587Z,101543.60
2018-06-03T13:23:27.817Z,101544.33
2018-06-03T13:28:30.051Z,101539.47
2018-06-03T13:33:32.219Z,101538.95
2018-06-03T13:38:34.497Z,101536.45
2018-06-03T13:43:36.664Z,101525.80
2018-06-03T13:48:38.897Z,101519.48
2018-06-03T13:53:41.102Z,101511.16
2018-06-03T13:58:43.279Z,101508.66
2018-06-03T14:03:45.517Z,101500.04
2018-06-03T14:08:47.683Z,101492.78
2018-06-03T14:13:49.851Z,101482.08
2018-06-03T14:18:52.030Z,101486.38
2018-06-03T14:23:54.167Z,101472.59
2018-06-03T14:28:56.374Z,101475.53
2018-06-03T14:33:58.543Z,101479.88
2018-06-03T14:39:00.758Z,101473.05
2018-06-03T14:44:02.964Z,101471.37
2018-06-03T14:49:05.175Z,101458.47
2018-06-03T14:54:07.412Z,101458.04
2018-06-03T14:59:09.575Z,101455.77
2018-06-03T15:04:11.804Z,101447.34
2018-06-03T15:09:13.998Z,101442.42
2018-06-03T15:14:16.341Z,101445.11
2018-06-03T15:19:18.593Z,101439.09
2018-06-03T15:24:21.152Z,101435.30
2018-06-03T15:29:23.373Z,101431.42
2018-06-03T15:34:25.548Z,101431.41
2018-06-03T15:39:28.080Z,101426.25
2018-06-03T15:44:31.197Z,101427.14
2018-06-03T15:49:34.476Z,101425.40
2018-06-03T15:54:37.176Z,101421.53
2018-06-03T15:59:39.403Z,101416.36
2018-06-03T16:04:41.602Z,101416.36
2018-06-03T16:09:43.759Z,101403.05
2018-06-03T16:14:45.913Z,101395.81
2018-06-03T16:19:48.120Z,101390.24
2018-06-03T16:24:50.311Z,101383.75
2018-06-03T16:29:52.489Z,101382.89
2018-06-03T16:34:54.707Z,101376.84
2018-06-03T16:39:56.966Z,101378.02
2018-06-03T16:44:59.150Z,101371.28
2018-06-03T16:50:01.451Z,101370.64
2018-06-03T16:55:03.880Z,101369.24
2018-06-03T17:00:06.071Z,101364.70
2018-06-03T17:05:08.345Z,101366.79
2018-06-03T17:10:10.633Z,101364.02
2018-06-03T17:15:12.861Z,101349.58
2018-06-03T17:20:15.125Z,101347.05
2018-06-03T17:25:17.351Z,101342.77
2018-06-03T17:30:19.554Z,101342.59
2018-06-03T17:35:21.754Z,101333.98
2018-06-03T17:40:24.045Z,101337.77
2018-06-03T17:45:26.227Z,101336.34
2018-06-03T17:50:28.416Z,101330.73
2018-06-03T17:55:30.716Z,101320.77
2018-06-03T18:00:32.964Z,101318.42
2018-06-03T18:05:35.261Z,101311.76
2018-06-03T18:10:37.509Z,101305.91
2018-06-03T18:15:39.755Z,101284.95
2018-06-03T18:20:41.993Z,101302.27
2018-06-03T18:25:44.199Z,101302.72
2018-06-03T18:30:46.414Z,101302.37
2018-06-03T18:35:48.593Z,101297.23
2018-06-03T18:40:50.854Z,101292.96
2018-06-03T18:45:53.074Z,101292.09
2018-06-03T18:50:55.258Z,101292.49
2018-06-03T18:55:57.498Z,101290.22
2018-06-03T19:00:59.690Z,101287.19
2018-06-03T19:06:01.908Z,101290.95
2018-06-03T19:11:04.138Z,101294.73
2018-06-03T19:16:06.123Z,101293.00
2018-06-03T19:21:08.356Z,101290.47
2018-06-03T19:26:10.557Z,101294.31
2018-06-03T19:31:12.790Z,101290.77
2018-06-03T19:36:15.040Z,101286.84
2018-06-03T19:41:17.573Z,101291.11
2018-06-03T19:46:19.881Z,101295.34
2018-06-03T19:51:22.176Z,101294.05
2018-06-03T19:56:24.459Z,101285.67
2018-06-03T20:01:27.096Z,101284.34
2018-06-03T20:06:29.355Z,101282.17
2018-06-03T20:11:31.576Z,101285.13
2018-06-03T20:16:34.429Z,101283.01
2018-06-03T20:26:45.654Z,101292.41
2018-06-03T20:31:48.243Z,101296.73
2018-06-03T20:36:50.587Z,101296.34
2018-06-03T20:41:52.873Z,101303.69
2018-06-03T20:46:55.136Z,101301.56
2018-06-03T20:51:57.429Z,101297.70
2018-06-03T20:56:59.671Z,101298.08
2018-06-03T21:02:01.919Z,101295.52
2018-06-03T21:07:04.156Z,101302.38
2018-06-03T21:12:06.357Z,101301.52
2018-06-03T21:17:08.641Z,101291.65
2018-06-03T21:22:10.835Z,101294.19
2018-06-03T21:27:13.091Z,101292.02
2018-06-03T21:32:15.362Z,101292.44
2018-06-03T21:37:17.589Z,101289.44
2018-06-03T21:42:19.868Z,101289.02
2018-06-03T21:47:22.054Z,101284.23
2018-06-03T21:52:24.290Z,101283.77
2018-06-03T21:57:26.454Z,101284.63
2018-06-03T22:02:28.649Z,101281.97
2018-06-03T22:07:30.900Z,101280.63
2018-06-03T22:12:40.075Z,101284.34
2018-06-03T22:17:42.212Z,101292.55
2018-06-03T22:22:44.377Z,101284.61
2018-06-03T22:27:46.506Z,101280.81
2018-06-03T22:32:48.644Z,101281.30
2018-06-03T22:37:50.793Z,101285.53
2018-06-03T22:42:52.971Z,101287.18
2018-06-03T22:47:55.156Z,101275.23
2018-06-03T22:52:57.332Z,101281.27
2018-06-03T22:57:59.463Z,101279.16
2018-06-03T23:03:07.292Z,101274.84
2018-06-03T23:08:09.457Z,101271.82
2018-06-03T23:13:11.685Z,101279.12
2018-06-03T23:18:13.849Z,101270.53
2018-06-03T23:23:16.170Z,101272.68
2018-06-03T23:28:18.323Z,101270.97
2018-06-03T23:33:20.534Z,101270.14
2018-06-03T23:38:22.700Z,101269.70
2018-06-03T23:43:24.860Z,101259.84
2018-06-03T23:48:27.205Z,101260.69
2018-06-03T23:53:29.352Z,101253.41
2018-06-03T23:58:31.511Z,101244.42
